OAKB/KBL METAR and TAF weather

Enter ICAO airport designator
Station Type Date Time Source
OAKB METAR 2021/01/22 05:50 UTC NOAA

OAKB 220550Z 32003KT 1200 HZ FEW100 07/M10 Q1017 RMK A3005 AMB AMB


Station Type Date Time Source
OAKB Decoded METAR 2021/01/22 05:50 UTC NOAA

Kabul Airport, Afghanistan (OAKB) 34-38N 069-12E
Jan 22, 2021 - 12:50 AM EST / 2021.01.22 0550 UTC
Wind: from the NW (320 degrees) at 3 MPH (3 KT):0
Visibility: less than 1 mile:0
Sky conditions: mostly clear
Weather: haze
Temperature: 44 F (7 C)
Dew Point: 14 F (-10 C)
Relative Humidity: 28%
Pressure (altimeter): 30.03 in. Hg (1017 hPa)
ob: OAKB 220550Z 32003KT 1200 HZ FEW100 07/M10 Q1017 RMK A3005 AMB AMB
cycle: 6

Station Type Date Time Source
OAKB TAF 2021/01/22 06:05 UTC NOAA

TAF OAKB 220505Z 2206/2306 VRB02KT 1200 FU FEW100
BECMG 2207/2209 3000 SCT100
BECMG 2209/2210 5000 HZ FEW040 BKN080
BECMG 2210/2212 35015G25KT -SHRA BR BKN040 OVC080
TEMPO 2212/2218 2000 -RASN BKN020 OVC040
BECMG 2220/2222 5000 BR FEW020 SCT040

Example: see airport list